Time;durP1;ratioP1;P1;durP2;ratioP2;P2;SDS_P1;SDS_P2;PMS_P1;PMS_P2;Temp;Humidity;BMP_temperature;BMP_pressure;BME280_temperature;BME280_humidity;BME280_pressure;Samples;Min_cycle;Max_cycle;Signal;HPM_P1;HPM_P2
2023/03/07 00:00:23;;;;;;;;;;;;;;;18.06;54.94;99409.23;2222170;80;51481;-74
2023/03/07 00:03:24;;;;;;;;;;;;;;;18.04;54.93;99407.28;2222471;79;51454;-74
2023/03/07 00:06:26;;;;;;;;;;;;;;;18.03;54.93;99406.14;2222224;79;51612;-75
2023/03/07 00:09:28;;;;;;;;;;;;;;;17.98;54.94;99405.45;2199727;80;51190;-75
2023/03/07 00:12:29;;;;;;;;;;;;;;;17.94;55.23;99405.55;2222406;80;50180;-74
2023/03/07 00:15:31;;;;;;;;;;;;;;;17.89;55.16;99400.52;2239088;77;51477;-74
2023/03/07 00:18:32;;;;;;;;;;;;;;;17.84;55.27;99398.47;2253052;78;50386;-74
2023/03/07 00:21:34;;;;;;;;;;;;;;;17.82;55.40;99395.17;2294859;77;52393;-74
2023/03/07 00:24:36;;;;;;;;;;;;;;;17.82;55.49;99391.98;2267308;78;51520;-74
2023/03/07 00:27:37;;;;;;;;;;;;;;;17.87;55.44;99379.31;2294758;77;50766;-74
2023/03/07 00:30:39;;;;;;;;;;;;;;;17.92;55.34;99371.48;2294567;77;50392;-74
2023/03/07 00:33:40;;;;;;;;;;;;;;;17.96;55.25;99366.03;2269066;78;51243;-74
2023/03/07 00:36:42;;;;;;;;;;;;;;;18.04;55.09;99363.64;2267197;78;50517;-75
2023/03/07 00:39:43;;;;;;;;;;;;;;;18.08;55.00;99354.13;2294466;77;50424;-75
2023/03/07 00:42:45;;;;;;;;;;;;;;;18.12;54.97;99349.20;2267116;78;50463;-75
2023/03/07 00:45:47;;;;;;;;;;;;;;;18.15;54.93;99344.75;2272910;77;51007;-74
2023/03/07 00:48:48;;;;;;;;;;;;;;;18.17;54.85;99334.66;2255097;77;50140;-74
2023/03/07 00:51:50;;;;;;;;;;;;;;;18.16;54.85;99335.19;2222273;80;50461;-75
2023/03/07 00:54:52;;;;;;;;;;;;;;;18.15;54.81;99325.49;2195230;80;50005;-74
2023/03/07 00:57:53;;;;;;;;;;;;;;;18.13;54.80;99314.17;2171716;80;51400;-74
2023/03/07 01:00:55;;;;;;;;;;;;;;;18.09;54.87;99316.17;2222198;80;50405;-74
2023/03/07 01:03:56;;;;;;;;;;;;;;;18.05;54.90;99303.19;2222308;79;51518;-74
2023/03/07 01:06:58;;;;;;;;;;;;;;;18.00;54.96;99294.97;2222200;80;51490;-74
2023/03/07 01:09:59;;;;;;;;;;;;;;;17.95;55.17;99293.44;2127358;82;51250;-74
2023/03/07 01:13:01;;;;;;;;;;;;;;;17.93;55.27;99279.97;2146322;81;50501;-74
2023/03/07 01:16:21;;;;;;;;;;;;;;;17.95;55.23;99285.42;2160414;80;51514;-75
2023/03/07 01:19:23;;;;;;;;;;;;;;;18.01;55.15;99277.08;2219670;78;51562;-74
2023/03/07 01:22:25;;;;;;;;;;;;;;;18.04;55.06;99262.74;2244086;78;50850;-74
2023/03/07 01:25:26;;;;;;;;;;;;;;;18.09;55.00;99259.95;2207506;80;51526;-73
2023/03/07 01:28:28;;;;;;;;;;;;;;;18.14;54.90;99253.45;2206675;79;51601;-74
2023/03/07 01:31:31;;;;;;;;;;;;;;;18.16;54.86;99256.70;2207934;80;51509;-73
2023/03/07 01:34:32;;;;;;;;;;;;;;;18.18;54.78;99236.72;2168640;79;51715;-74
2023/03/07 01:37:34;;;;;;;;;;;;;;;18.17;54.75;99235.61;2195719;79;50553;-73
2023/03/07 01:40:36;;;;;;;;;;;;;;;18.14;54.72;99233.37;2177045;80;50750;-74
2023/03/07 01:43:37;;;;;;;;;;;;;;;18.11;54.74;99220.39;2177154;79;50612;-74
2023/03/07 01:46:43;;;;;;;;;;;;;;;18.09;54.70;99214.45;2182060;80;52367;-74
2023/03/07 01:49:45;;;;;;;;;;;;;;;18.04;54.75;99204.38;2186273;80;50782;-73
2023/03/07 01:52:54;;;;;;;;;;;;;;;17.98;54.86;99194.52;2180506;80;51531;-76
2023/03/07 01:55:56;;;;;;;;;;;;;;;17.94;54.98;99184.77;2180907;80;50791;-74
2023/03/07 01:58:58;;;;;;;;;;;;;;;17.95;55.02;99182.38;2198012;80;51686;-73
2023/03/07 02:02:00;;;;;;;;;;;;;;;17.98;54.99;99167.75;2180702;80;50459;-74
2023/03/07 02:05:21;;;;;;;;;;;;;;;18.01;54.94;99170.84;2180604;80;50773;-73
2023/03/07 02:08:23;;;;;;;;;;;;;;;18.06;54.82;99160.31;2196875;78;51453;-73
2023/03/07 02:11:25;;;;;;;;;;;;;;;18.10;54.78;99151.31;2263997;78;49585;-73
2023/03/07 02:14:26;;;;;;;;;;;;;;;18.14;54.71;99150.38;2262128;78;50500;-74
2023/03/07 02:17:28;;;;;;;;;;;;;;;18.12;54.67;99141.74;2261980;78;50739;-73
2023/03/07 02:20:39;;;;;;;;;;;;;;;18.10;54.67;99135.26;2261843;78;50496;-73
2023/03/07 02:23:45;;;;;;;;;;;;;;;18.06;54.73;99122.84;2264047;78;50055;-75
2023/03/07 02:26:47;;;;;;;;;;;;;;;18.02;54.80;99124.29;2262276;78;50826;-71
2023/03/07 02:29:49;;;;;;;;;;;;;;;17.97;54.95;99115.28;2262025;78;52123;-70
2023/03/07 02:32:50;;;;;;;;;;;;;;;17.90;55.15;99105.94;2261667;78;51430;-71
2023/03/07 02:35:53;;;;;;;;;;;;;;;17.83;55.38;99097.16;2237265;78;50981;-71
2023/03/07 02:38:54;;;;;;;;;;;;;;;17.79;55.51;99090.56;2261505;78;51566;-71
2023/03/07 02:41:56;;;;;;;;;;;;;;;17.79;55.55;99083.88;2262090;78;51560;-71
2023/03/07 02:44:58;;;;;;;;;;;;;;;17.81;55.52;99076.48;2262118;78;50405;-71
2023/03/07 02:48:00;;;;;;;;;;;;;;;17.84;55.43;99078.20;2228539;78;50995;-71
2023/03/07 02:51:01;;;;;;;;;;;;;;;17.92;55.26;99065.08;2261815;78;50436;-73
2023/03/07 02:54:03;;;;;;;;;;;;;;;17.98;55.05;99061.55;2262130;78;50474;-70
2023/03/07 02:57:05;;;;;;;;;;;;;;;18.04;54.92;99048.63;2237123;78;50976;-72
2023/03/07 03:00:08;;;;;;;;;;;;;;;18.07;54.83;99035.32;2236943;78;52358;-71
2023/03/07 03:03:10;;;;;;;;;;;;;;;18.10;54.78;99034.06;2261755;78;50441;-70
2023/03/07 03:06:12;;;;;;;;;;;;;;;18.09;54.74;99025.75;2262070;78;51491;-71
2023/03/07 03:09:14;;;;;;;;;;;;;;;18.09;54.74;99016.38;2261495;78;50808;-70
2023/03/07 03:12:15;;;;;;;;;;;;;;;18.06;54.73;99015.78;2237187;78;52488;-71
2023/03/07 03:15:17;;;;;;;;;;;;;;;18.02;54.80;98999.03;2262693;78;51558;-70
2023/03/07 03:18:18;;;;;;;;;;;;;;;17.99;54.92;99004.30;2276120;77;50740;-69
2023/03/07 03:21:20;;;;;;;;;;;;;;;17.93;54.98;98987.80;2262025;78;51537;-70
2023/03/07 03:24:22;;;;;;;;;;;;;;;17.85;55.19;98978.68;2263999;78;50916;-70
2023/03/07 03:27:23;;;;;;;;;;;;;;;17.80;55.36;98970.48;2261854;78;51488;-70
2023/03/07 03:30:27;;;;;;;;;;;;;;;17.83;55.29;98964.73;2261807;78;51510;-71
2023/03/07 03:33:28;;;;;;;;;;;;;;;17.86;55.28;98954.11;2261556;78;50400;-71
2023/03/07 03:36:30;;;;;;;;;;;;;;;17.91;55.16;98951.59;2263873;78;51793;-71
2023/03/07 03:39:31;;;;;;;;;;;;;;;17.96;55.12;98954.42;2261310;78;50711;-72
2023/03/07 03:42:33;;;;;;;;;;;;;;;18.02;55.00;98946.31;2263632;78;52461;-71
2023/03/07 03:45:34;;;;;;;;;;;;;;;18.08;54.87;98934.43;2264147;77;51519;-71
2023/03/07 03:48:36;;;;;;;;;;;;;;;18.13;54.80;98921.20;2274569;77;51491;-71
2023/03/07 03:51:38;;;;;;;;;;;;;;;18.14;54.68;98916.16;2241134;78;52541;-71
2023/03/07 03:54:39;;;;;;;;;;;;;;;18.16;54.67;98907.37;2263917;77;51501;-70
2023/03/07 03:57:41;;;;;;;;;;;;;;;18.14;54.68;98898.23;2263875;78;51416;-71
2023/03/07 04:00:43;;;;;;;;;;;;;;;18.10;54.77;98895.70;2263692;77;51385;-71
2023/03/07 04:03:45;;;;;;;;;;;;;;;18.09;54.82;98897.28;2253663;78;51772;-70
2023/03/07 04:06:47;;;;;;;;;;;;;;;18.05;54.88;98892.34;2264391;77;50447;-70
2023/03/07 04:09:49;;;;;;;;;;;;;;;18.00;54.98;98886.02;2264121;77;50441;-70
2023/03/07 04:12:50;;;;;;;;;;;;;;;17.95;55.16;98883.20;2264312;77;50247;-70
2023/03/07 04:15:53;;;;;;;;;;;;;;;17.90;55.31;98875.83;2239091;77;51054;-70
2023/03/07 04:18:54;;;;;;;;;;;;;;;17.91;55.31;98879.34;2264484;77;51929;-71
2023/03/07 04:21:56;;;;;;;;;;;;;;;17.94;55.25;98857.48;2264505;77;51525;-71
2023/03/07 04:24:58;;;;;;;;;;;;;;;17.99;55.14;98857.64;2264646;78;51513;-71
2023/03/07 04:27:59;;;;;;;;;;;;;;;18.04;55.01;98850.58;2239219;78;50903;-71
2023/03/07 04:31:01;;;;;;;;;;;;;;;18.09;54.93;98844.56;2264623;78;50439;-71
2023/03/07 04:34:02;;;;;;;;;;;;;;;18.13;54.83;98834.21;2251899;77;50595;-71
2023/03/07 04:37:04;;;;;;;;;;;;;;;18.16;54.74;98839.11;2267464;78;50783;-71
2023/03/07 04:40:06;;;;;;;;;;;;;;;18.16;54.71;98825.23;2294940;77;49315;-72
2023/03/07 04:43:07;;;;;;;;;;;;;;;18.14;54.72;98821.95;2294928;77;51506;-71
2023/03/07 04:46:09;;;;;;;;;;;;;;;18.12;54.75;98816.53;2295026;77;51487;-71
2023/03/07 04:49:11;;;;;;;;;;;;;;;18.09;54.80;98815.64;2267039;78;50823;-72
2023/03/07 04:52:12;;;;;;;;;;;;;;;18.05;54.87;98810.72;2294436;77;50156;-72
2023/03/07 04:55:14;;;;;;;;;;;;;;;18.01;54.97;98808.73;2294540;77;51504;-71
2023/03/07 04:58:15;;;;;;;;;;;;;;;17.94;55.13;98807.46;2294383;77;52133;-72
2023/03/07 05:01:17;;;;;;;;;;;;;;;17.91;55.24;98801.22;2267015;78;50802;-71
2023/03/07 05:04:18;;;;;;;;;;;;;;;17.88;55.36;98794.14;2255937;78;51144;-71
2023/03/07 05:07:20;;;;;;;;;;;;;;;17.90;55.42;98786.20;2195136;80;51604;-73
2023/03/07 05:10:22;;;;;;;;;;;;;;;17.94;55.47;98782.04;2166761;81;51529;-73
2023/03/07 05:13:23;;;;;;;;;;;;;;;18.00;55.35;98781.66;2146486;82;51493;-73
2023/03/07 05:16:25;;;;;;;;;;;;;;;18.04;55.27;98778.31;2146401;83;51488;-73
2023/03/07 05:19:26;;;;;;;;;;;;;;;18.10;55.14;98767.75;2146061;82;51652;-73
2023/03/07 05:22:28;;;;;;;;;;;;;;;18.12;55.01;98764.34;2146251;83;51454;-75
2023/03/07 05:25:30;;;;;;;;;;;;;;;18.10;54.98;98757.86;2146226;81;51590;-73
2023/03/07 05:28:31;;;;;;;;;;;;;;;18.09;55.06;98759.44;2145928;81;50465;-71
2023/03/07 05:31:33;;;;;;;;;;;;;;;18.03;55.22;98756.63;2149784;79;50443;-72
2023/03/07 05:34:34;;;;;;;;;;;;;;;18.00;55.61;98746.88;2207508;79;50001;-72
2023/03/07 05:37:36;;;;;;;;;;;;;;;18.04;55.46;98746.73;2199065;80;51492;-72
2023/03/07 05:40:39;;;;;;;;;;;;;;;18.04;55.27;98744.86;2198592;78;49505;-72
2023/03/07 05:43:40;;;;;;;;;;;;;;;17.97;55.43;98745.46;2180100;81;51535;-72
2023/03/07 05:46:42;;;;;;;;;;;;;;;17.94;55.47;98739.75;2196691;79;51512;-72
2023/03/07 05:49:43;;;;;;;;;;;;;;;17.99;55.36;98741.23;2179980;81;51508;-73
2023/03/07 05:52:45;;;;;;;;;;;;;;;18.02;55.28;98744.27;2196497;80;52289;-73
2023/03/07 05:55:46;;;;;;;;;;;;;;;18.10;55.00;98743.66;2180180;81;50446;-73
2023/03/07 05:58:48;;;;;;;;;;;;;;;18.17;54.80;98742.53;2197344;80;50262;-72
2023/03/07 06:01:49;;;;;;;;;;;;;;;18.23;54.70;98740.27;2184459;80;50461;-74
2023/03/07 06:04:51;;;;;;;;;;;;;;;18.30;54.52;98732.16;2177399;80;51623;-74
2023/03/07 06:07:53;;;;;;;;;;;;;;;18.32;54.45;98734.09;2218967;80;50784;-74
2023/03/07 06:10:54;;;;;;;;;;;;;;;18.32;54.43;98736.77;2200765;79;50777;-73
2023/03/07 06:13:56;;;;;;;;;;;;;;;18.32;54.41;98730.08;2200170;80;51519;-74
2023/03/07 06:16:57;;;;;;;;;;;;;;;18.32;54.41;98733.28;2176682;80;52335;-74
2023/03/07 06:19:59;;;;;;;;;;;;;;;18.31;54.45;98727.09;2206931;80;51531;-74
2023/03/07 06:23:00;;;;;;;;;;;;;;;18.30;54.42;98728.15;2208736;80;51523;-74
2023/03/07 06:26:02;;;;;;;;;;;;;;;18.27;54.51;98731.28;2200481;80;50808;-74
2023/03/07 06:29:04;;;;;;;;;;;;;;;18.20;54.61;98725.20;2219322;79;50077;-74
2023/03/07 06:32:05;;;;;;;;;;;;;;;18.12;54.75;98729.02;2195950;80;50764;-74
2023/03/07 06:35:07;;;;;;;;;;;;;;;18.10;54.89;98728.41;2196691;79;50174;-74
2023/03/07 06:38:09;;;;;;;;;;;;;;;18.14;54.85;98726.13;2197783;79;50196;-74
2023/03/07 06:41:11;;;;;;;;;;;;;;;18.15;55.03;98724.54;2217796;79;51198;-73
2023/03/07 06:44:12;;;;;;;;;;;;;;;18.19;54.92;98725.73;2218099;80;50426;-73
2023/03/07 06:47:14;;;;;;;;;;;;;;;18.22;54.85;98722.59;2236140;78;50571;-73
2023/03/07 06:50:15;;;;;;;;;;;;;;;18.27;54.80;98729.95;2219750;78;50780;-74
2023/03/07 06:53:17;;;;;;;;;;;;;;;18.31;54.77;98730.30;2210889;79;49650;-72
2023/03/07 06:56:19;;;;;;;;;;;;;;;18.36;54.61;98733.91;2235251;78;50457;-71
2023/03/07 06:59:20;;;;;;;;;;;;;;;18.36;54.65;98727.22;2231562;79;50710;-74
2023/03/07 07:02:22;;;;;;;;;;;;;;;18.32;55.52;98735.44;2224725;77;51439;-73
2023/03/07 07:05:23;;;;;;;;;;;;;;;18.32;56.84;98745.33;2186990;79;52328;-72
2023/03/07 07:08:25;;;;;;;;;;;;;;;18.33;56.27;98741.60;2218063;79;50017;-72
2023/03/07 07:11:27;;;;;;;;;;;;;;;18.34;56.19;98746.74;2222530;79;51937;-72
2023/03/07 07:14:28;;;;;;;;;;;;;;;18.29;56.15;98739.91;2238214;79;51359;-72
2023/03/07 07:17:30;;;;;;;;;;;;;;;18.30;55.99;98738.86;2219981;79;51157;-72
2023/03/07 07:20:31;;;;;;;;;;;;;;;18.30;55.98;98730.83;2242800;77;50227;-72
2023/03/07 07:23:33;;;;;;;;;;;;;;;18.27;56.09;98729.95;2208765;78;50480;-72
2023/03/07 07:26:35;;;;;;;;;;;;;;;18.33;56.04;98728.22;2221857;78;50808;-72
2023/03/07 07:29:36;;;;;;;;;;;;;;;18.26;56.22;98729.63;2178458;80;51116;-73
2023/03/07 07:32:38;;;;;;;;;;;;;;;18.34;56.12;98728.50;2200616;80;50386;-73
2023/03/07 07:35:41;;;;;;;;;;;;;;;18.33;56.19;98720.18;2200863;80;50718;-73
2023/03/07 07:38:42;;;;;;;;;;;;;;;18.32;56.15;98724.73;2200094;81;51466;-72
2023/03/07 07:41:44;;;;;;;;;;;;;;;18.37;55.96;98717.32;2178919;80;52362;-74
2023/03/07 07:44:47;;;;;;;;;;;;;;;18.37;55.89;98716.83;2200808;81;51543;-72
2023/03/07 07:47:49;;;;;;;;;;;;;;;18.32;55.80;98718.03;2200739;81;50428;-72
2023/03/07 07:50:50;;;;;;;;;;;;;;;18.28;55.57;98718.18;2200366;81;51448;-73
2023/03/07 07:53:52;;;;;;;;;;;;;;;18.22;55.43;98705.72;2214353;77;51550;-73
2023/03/07 07:56:53;;;;;;;;;;;;;;;18.22;55.60;98716.42;2221611;77;50453;-75
2023/03/07 07:59:55;;;;;;;;;;;;;;;18.09;55.94;98703.23;2181393;81;50550;-74
2023/03/07 08:02:57;;;;;;;;;;;;;;;18.00;56.28;98709.41;2181932;80;50369;-73
2023/03/07 08:05:59;;;;;;;;;;;;;;;18.02;56.30;98712.67;2158928;81;51011;-74
2023/03/07 08:09:00;;;;;;;;;;;;;;;18.04;56.34;98712.75;2182036;81;50436;-75
2023/03/07 08:12:02;;;;;;;;;;;;;;;18.08;56.42;98710.95;2183429;80;50470;-74
2023/03/07 08:15:04;;;;;;;;;;;;;;;18.14;56.31;98710.06;2182960;81;50412;-73
2023/03/07 08:18:05;;;;;;;;;;;;;;;18.17;56.29;98714.95;2208788;77;52274;-72
2023/03/07 08:21:07;;;;;;;;;;;;;;;18.19;56.27;98711.53;2226501;77;50239;-71
2023/03/07 08:24:09;;;;;;;;;;;;;;;18.24;56.44;98714.34;2218269;80;50741;-70
2023/03/07 08:27:10;;;;;;;;;;;;;;;18.22;56.79;98719.11;2216939;80;50809;-72
2023/03/07 08:30:12;;;;;;;;;;;;;;;18.21;57.25;98718.79;2192472;80;51054;-71
2023/03/07 08:33:14;;;;;;;;;;;;;;;18.10;58.37;98706.20;2215912;80;50066;-72
2023/03/07 08:36:15;;;;;;;;;;;;;;;18.06;59.22;98709.86;2217132;79;50479;-72
2023/03/07 08:39:17;;;;;;;;;;;;;;;18.03;59.20;98704.44;2216655;80;50481;-72
2023/03/07 08:42:19;;;;;;;;;;;;;;;18.05;58.96;98703.66;2192959;80;51246;-73
2023/03/07 08:45:21;;;;;;;;;;;;;;;18.14;58.22;98700.16;2216718;80;51492;-71
2023/03/07 08:48:23;;;;;;;;;;;;;;;18.15;58.36;98705.80;2228831;78;50729;-72
2023/03/07 08:51:24;;;;;;;;;;;;;;;18.20;58.25;98705.94;2289866;77;50429;-72
2023/03/07 08:54:27;;;;;;;;;;;;;;;18.20;58.10;98713.16;2292590;77;51647;-71
2023/03/07 08:57:28;;;;;;;;;;;;;;;18.25;58.24;98707.94;2291029;77;51521;-71
2023/03/07 09:00:30;;;;;;;;;;;;;;;18.28;58.30;98705.61;2290568;77;50437;-71
2023/03/07 09:03:31;;;;;;;;;;;;;;;18.29;58.29;98705.11;2290792;77;50117;-72
2023/03/07 09:06:33;;;;;;;;;;;;;;;18.31;58.38;98707.01;2249020;77;50096;-71
2023/03/07 09:09:35;;;;;;;;;;;;;;;18.25;58.42;98708.75;2199920;81;50432;-72
2023/03/07 09:12:36;;;;;;;;;;;;;;;18.10;59.11;98703.52;2226363;78;51464;-71
2023/03/07 09:15:39;;;;;;;;;;;;;;;18.04;59.44;98702.57;2203693;78;51517;-71
2023/03/07 09:18:41;;;;;;;;;;;;;;;18.02;59.75;98708.66;2237857;78;49624;-72
2023/03/07 09:21:42;;;;;;;;;;;;;;;18.02;60.09;98704.13;2233477;78;50575;-70
2023/03/07 09:24:44;;;;;;;;;;;;;;;18.04;59.64;98704.72;2218591;78;50143;-71
2023/03/07 09:27:46;;;;;;;;;;;;;;;18.17;59.11;98702.91;2263623;77;50763;-70
2023/03/07 09:30:47;;;;;;;;;;;;;;;18.18;59.14;98700.52;2255131;77;49251;-74
2023/03/07 09:33:49;;;;;;;;;;;;;;;18.21;59.09;98692.02;2235338;78;50199;-75
2023/03/07 09:36:51;;;;;;;;;;;;;;;18.21;58.81;98699.55;2235071;78;50500;-75
2023/03/07 09:39:52;;;;;;;;;;;;;;;18.23;58.50;98697.44;2235045;79;50734;-75
2023/03/07 09:42:55;;;;;;;;;;;;;;;18.28;58.24;98707.47;2210865;78;51192;-76
2023/03/07 09:45:58;;;;;;;;;;;;;;;18.23;58.19;98702.80;2235528;78;50744;-75
2023/03/07 09:49:11;;;;;;;;;;;;;;;18.19;58.14;98689.59;2233599;77;50740;-75
2023/03/07 09:52:13;;;;;;;;;;;;;;;18.11;58.20;98701.97;2203185;79;50457;-75
2023/03/07 09:55:15;;;;;;;;;;;;;;;18.00;58.47;98699.52;2200278;80;51479;-76
2023/03/07 09:58:18;;;;;;;;;;;;;;;17.95;58.54;98700.71;2200175;81;51496;-76
2023/03/07 10:01:20;;;;;;;;;;;;;;;17.92;58.64;98701.70;2203081;77;50052;-76
2023/03/07 10:04:25;;;;;;;;;;;;;;;17.97;58.47;98691.94;2223719;78;51507;-77
2023/03/07 10:07:26;;;;;;;;;;;;;;;18.03;58.26;98697.75;2181222;78;49874;-77
2023/03/07 10:10:38;;;;;;;;;;;;;;;18.07;58.04;98695.42;2206538;79;51484;-76
2023/03/07 10:13:56;;;;;;;;;;;;;;;18.11;57.87;98687.74;2181861;80;51548;-76
2023/03/07 10:17:00;;;;;;;;;;;;;;;18.05;57.86;98698.31;2243470;78;50941;-76
2023/03/07 10:20:05;;;;;;;;;;;;;;;17.96;58.02;98697.02;2201563;81;52375;-75
2023/03/07 10:23:10;;;;;;;;;;;;;;;17.90;58.15;98703.25;2200549;80;22350;-77
2023/03/07 10:26:14;;;;;;;;;;;;;;;17.81;58.38;98693.92;2266985;77;50288;-75
2023/03/07 10:29:18;;;;;;;;;;;;;;;17.76;58.62;98703.11;2270506;77;50607;-77
2023/03/07 10:32:27;;;;;;;;;;;;;;;17.73;58.64;98706.23;2189206;79;52476;-76
2023/03/07 10:35:40;;;;;;;;;;;;;;;17.69;58.69;98701.03;2200232;81;50751;-76
2023/03/07 10:39:00;;;;;;;;;;;;;;;17.71;58.60;98701.62;2199847;80;50501;-75
2023/03/07 10:42:01;;;;;;;;;;;;;;;17.73;58.54;98712.92;2200429;80;50778;-76
2023/03/07 10:45:03;;;;;;;;;;;;;;;17.79;58.34;98708.84;2176878;80;51212;-76
2023/03/07 10:48:06;;;;;;;;;;;;;;;17.86;58.12;98704.76;2200189;80;51531;-75
2023/03/07 10:51:12;;;;;;;;;;;;;;;17.94;57.93;98699.09;2200035;80;51484;-75
2023/03/07 10:54:14;;;;;;;;;;;;;;;18.05;57.64;98700.17;2200271;80;51597;-75
2023/03/07 10:57:17;;;;;;;;;;;;;;;18.11;57.46;98694.43;2178521;81;52455;-75
2023/03/07 11:00:18;;;;;;;;;;;;;;;18.13;57.27;98691.02;2242505;77;49822;-76
2023/03/07 11:03:22;;;;;;;;;;;;;;;18.15;57.17;98691.08;2288545;77;50749;-76
2023/03/07 11:06:25;;;;;;;;;;;;;;;18.17;57.05;98690.86;2290398;77;50207;-76
2023/03/07 11:09:27;;;;;;;;;;;;;;;18.11;57.14;98682.39;2292532;76;51228;-76
2023/03/07 11:12:30;;;;;;;;;;;;;;;18.08;57.14;98674.82;2290370;76;51545;-75
2023/03/07 11:15:32;;;;;;;;;;;;;;;17.98;57.37;98675.36;2290603;77;52028;-76
2023/03/07 11:18:37;;;;;;;;;;;;;;;17.84;57.77;98672.06;2290160;77;51525;-77
2023/03/07 11:21:39;;;;;;;;;;;;;;;17.80;57.88;98669.03;2264953;77;49613;-76
2023/03/07 11:24:40;;;;;;;;;;;;;;;17.78;57.96;98667.59;2290615;77;51968;-70
2023/03/07 11:27:47;;;;;;;;;;;;;;;17.82;58.40;98676.81;2290390;77;51466;-70
2023/03/07 11:30:50;;;;;;;;;;;;;;;17.93;57.95;98665.36;2256305;77;50440;-71
2023/03/07 11:33:54;;;;;;;;;;;;;;;17.97;58.01;98662.51;2181664;81;50773;-70
2023/03/07 11:36:56;;;;;;;;;;;;;;;18.03;58.02;98654.93;2181501;80;50771;-71
2023/03/07 11:39:59;;;;;;;;;;;;;;;18.04;58.16;98650.39;2181732;80;50769;-71
2023/03/07 11:43:14;;;;;;;;;;;;;;;18.03;58.21;98645.56;2182017;80;51520;-71
2023/03/07 11:46:20;;;;;;;;;;;;;;;18.00;58.32;98647.33;2158573;81;51341;-71
2023/03/07 11:49:42;;;;;;;;;;;;;;;18.00;58.33;98645.99;2182208;81;51526;-72
2023/03/07 11:52:57;;;;;;;;;;;;;;;18.02;58.27;98631.87;2182267;80;52990;-71
2023/03/07 11:56:00;;;;;;;;;;;;;;;18.01;58.50;98627.58;2181718;80;51541;-72
2023/03/07 11:59:13;;;;;;;;;;;;;;;17.98;58.88;98628.03;2166365;78;51013;-73
2023/03/07 12:02:28;;;;;;;;;;;;;;;18.04;58.68;98631.13;2233201;79;51483;-71
2023/03/07 12:05:48;;;;;;;;;;;;;;;18.06;58.46;98626.89;2235420;78;50450;-72
2023/03/07 12:09:00;;;;;;;;;;;;;;;18.10;58.12;98622.70;2235266;79;51494;-74
2023/03/07 12:12:03;;;;;;;;;;;;;;;18.21;57.80;98621.09;2213014;79;51192;-73
2023/03/07 12:15:23;;;;;;;;;;;;;;;18.25;57.78;98627.63;2235449;79;50459;-72
2023/03/07 12:18:29;;;;;;;;;;;;;;;18.30;57.64;98625.07;2235337;78;50217;-72
2023/03/07 12:21:48;;;;;;;;;;;;;;;18.26;57.75;98631.92;2224041;79;51546;-73
2023/03/07 12:24:52;;;;;;;;;;;;;;;18.26;57.78;98629.24;2213018;79;51180;-73
2023/03/07 12:28:01;;;;;;;;;;;;;;;18.23;57.95;98635.06;2235293;78;50413;-71
2023/03/07 12:31:13;;;;;;;;;;;;;;;18.18;58.12;98626.91;2227702;78;50485;-72
2023/03/07 12:34:19;;;;;;;;;;;;;;;18.13;58.35;98624.09;2219997;77;50452;-74
2023/03/07 12:37:25;;;;;;;;;;;;;;;18.09;58.43;98626.43;2215681;80;49660;-72
2023/03/07 12:40:43;;;;;;;;;;;;;;;18.08;58.55;98619.42;2215507;80;52179;-73
2023/03/07 12:43:46;;;;;;;;;;;;;;;18.08;58.78;98629.33;2216443;80;49520;-72
2023/03/07 12:46:49;;;;;;;;;;;;;;;18.08;58.90;98629.33;2216363;80;50705;-72
2023/03/07 12:49:58;;;;;;;;;;;;;;;18.12;58.88;98624.62;2191691;80;52307;-73
2023/03/07 12:53:07;;;;;;;;;;;;;;;18.13;58.96;98630.27;2195902;80;51579;-71
2023/03/07 12:56:16;;;;;;;;;;;;;;;18.17;58.89;98625.28;2216192;80;51451;-72
2023/03/07 12:59:20;;;;;;;;;;;;;;;18.19;58.86;98623.20;2216124;80;51481;-75
2023/03/07 13:02:23;;;;;;;;;;;;;;;18.12;59.02;98625.97;2237883;77;22230;-73
2023/03/07 13:05:24;;;;;;;;;;;;;;;18.12;59.01;98623.81;2212635;79;51605;-72
2023/03/07 13:08:26;;;;;;;;;;;;;;;18.14;58.84;98626.56;2200210;81;51621;-73
2023/03/07 13:11:28;;;;;;;;;;;;;;;18.10;58.86;98632.59;2200535;81;50730;-73
2023/03/07 13:14:40;;;;;;;;;;;;;;;17.97;59.10;98633.60;2201792;78;51474;-72
2023/03/07 13:17:43;;;;;;;;;;;;;;;17.85;59.45;98645.59;2233167;78;50476;-74
2023/03/07 13:20:45;;;;;;;;;;;;;;;17.85;59.46;98638.90;2233244;78;51456;-72
2023/03/07 13:23:47;;;;;;;;;;;;;;;17.87;59.62;98645.37;2233234;78;50071;-72
2023/03/07 13:26:50;;;;;;;;;;;;;;;17.99;59.60;98645.71;2233638;78;50718;-72
2023/03/07 13:30:04;;;;;;;;;;;;;;;18.13;59.19;98646.32;2233092;78;51530;-70
2023/03/07 13:33:25;;;;;;;;;;;;;;;18.15;59.09;98646.91;2233783;78;51616;-72
2023/03/07 13:36:30;;;;;;;;;;;;;;;18.25;58.92;98650.38;2233404;78;50436;-72
2023/03/07 13:39:35;;;;;;;;;;;;;;;18.28;58.90;98651.25;2235152;78;51261;-72
2023/03/07 13:42:46;;;;;;;;;;;;;;;18.32;58.79;98652.44;2232929;79;51469;-72
2023/03/07 13:45:57;;;;;;;;;;;;;;;18.34;58.75;98654.37;2219165;78;50392;-72
2023/03/07 13:48:59;;;;;;;;;;;;;;;18.40;58.50;98650.77;2200041;80;50426;-72
2023/03/07 13:52:19;;;;;;;;;;;;;;;18.37;58.34;98656.58;2177793;81;50985;-71
2023/03/07 13:55:21;;;;;;;;;;;;;;;18.38;58.09;98656.05;2200281;81;51523;-72
2023/03/07 13:58:27;;;;;;;;;;;;;;;18.30;58.04;98655.05;2200106;81;51482;-72
2023/03/07 14:01:30;;;;;;;;;;;;;;;18.26;58.14;98661.37;2200277;81;50436;-72
2023/03/07 14:04:34;;;;;;;;;;;;;;;18.20;58.36;98651.59;2201873;80;52407;-72
2023/03/07 14:07:40;;;;;;;;;;;;;;;18.10;58.79;98648.66;2200169;81;51430;-73
2023/03/07 14:10:43;;;;;;;;;;;;;;;18.13;58.83;98644.98;2200040;80;50444;-72
2023/03/07 14:13:47;;;;;;;;;;;;;;;18.24;58.59;98653.59;2220202;77;51842;-72
2023/03/07 14:16:53;;;;;;;;;;;;;;;18.19;58.56;98643.28;2224283;78;50153;-72
2023/03/07 14:20:08;;;;;;;;;;;;;;;18.20;58.44;98643.56;2235069;78;50536;-72
2023/03/07 14:23:24;;;;;;;;;;;;;;;18.19;58.36;98643.28;2235058;79;22218;-72
2023/03/07 14:26:33;;;;;;;;;;;;;;;18.17;58.32;98640.01;2235442;78;50427;-71
2023/03/07 14:29:35;;;;;;;;;;;;;;;18.05;58.55;98632.74;2236663;78;49718;-71
2023/03/07 14:32:38;;;;;;;;;;;;;;;17.91;58.88;98624.63;2235395;79;51566;-70
2023/03/07 14:35:43;;;;;;;;;;;;;;;17.78;59.23;98636.30;2235430;79;51599;-71
2023/03/07 14:38:45;;;;;;;;;;;;;;;17.74;59.36;98629.77;2235205;78;51477;-72
2023/03/07 14:41:48;;;;;;;;;;;;;;;17.71;59.50;98634.76;2212756;79;51680;-70
2023/03/07 14:44:57;;;;;;;;;;;;;;;17.70;59.48;98628.60;2228384;77;50749;-72
2023/03/07 14:48:03;;;;;;;;;;;;;;;17.74;59.43;98634.30;2271940;78;50436;-71
2023/03/07 14:51:06;;;;;;;;;;;;;;;17.77;59.38;98631.98;2272289;78;50474;-71
2023/03/07 14:54:10;;;;;;;;;;;;;;;17.79;59.57;98642.47;2274375;78;50994;-72
2023/03/07 14:57:13;;;;;;;;;;;;;;;17.84;59.56;98634.61;2272382;76;50419;-71
2023/03/07 15:00:22;;;;;;;;;;;;;;;17.92;59.55;98649.52;2271177;77;50488;-72
2023/03/07 15:03:23;;;;;;;;;;;;;;;18.05;59.25;98644.78;2272336;78;51446;-71
2023/03/07 15:06:25;;;;;;;;;;;;;;;18.08;59.16;98637.35;2274311;78;50832;-72
2023/03/07 15:09:27;;;;;;;;;;;;;;;17.99;59.36;98649.72;2271881;78;51408;-72
2023/03/07 15:12:30;;;;;;;;;;;;;;;17.97;59.44;98634.94;2271504;78;50756;-71
2023/03/07 15:15:33;;;;;;;;;;;;;;;17.94;59.53;98639.41;2254067;77;51508;-71
2023/03/07 15:18:36;;;;;;;;;;;;;;;17.91;59.60;98642.02;2241073;77;51635;-71
2023/03/07 15:21:44;;;;;;;;;;;;;;;17.92;59.53;98646.32;2237552;79;51470;-72
2023/03/07 15:24:46;;;;;;;;;;;;;;;17.92;59.40;98650.33;2246533;77;50834;-72
2023/03/07 15:27:49;;;;;;;;;;;;;;;17.87;59.45;98652.06;2241592;77;51500;-70
2023/03/07 15:30:51;;;;;;;;;;;;;;;17.81;59.53;98648.44;2246315;77;51758;-71
2023/03/07 15:33:52;;;;;;;;;;;;;;;17.77;59.82;98655.24;2237312;77;50421;-73
2023/03/07 15:36:54;;;;;;;;;;;;;;;17.78;59.89;98656.89;2234674;78;50504;-70
2023/03/07 15:39:57;;;;;;;;;;;;;;;17.84;59.90;98656.81;2228370;77;50774;-71
2023/03/07 15:43:03;;;;;;;;;;;;;;;17.90;59.95;98657.77;2210575;79;50212;-70
2023/03/07 15:46:10;;;;;;;;;;;;;;;17.95;59.80;98666.45;2212686;78;49639;-71
2023/03/07 15:49:13;;;;;;;;;;;;;;;17.97;59.76;98673.21;2238003;77;51952;-71
2023/03/07 15:52:30;;;;;;;;;;;;;;;17.96;59.75;98673.45;2226343;77;51522;-71
2023/03/07 15:55:32;;;;;;;;;;;;;;;17.94;59.84;98684.38;2213835;79;51209;-71